Time;durP1;ratioP1;P1;durP2;ratioP2;P2;SDS_P1;SDS_P2;PMS_P1;PMS_P2;Temp;Humidity;BMP_temperature;BMP_pressure;BME280_temperature;BME280_humidity;BME280_pressure;Samples;Min_cycle;Max_cycle;Signal;HPM_P1;HPM_P2
2023/07/29 00:01:35;;;;;;;8.02;1.48;;;;;;;-144.48;100.00;62369.91;4992942;28;20088;-67
2023/07/29 00:04:00;;;;;;;5.70;1.65;;;;;;;-144.48;100.00;62369.91;5010881;28;20053;-66
2023/07/29 00:06:26;;;;;;;2.70;1.35;;;;;;;-144.48;100.00;62369.91;4992957;28;20435;-67
2023/07/29 00:08:51;;;;;;;3.30;1.48;;;;;;;-144.48;100.00;62369.91;5010984;28;20025;-67
2023/07/29 00:11:16;;;;;;;3.20;1.35;;;;;;;-144.48;100.00;62369.91;5010407;28;20030;-67
2023/07/29 00:13:42;;;;;;;2.55;1.40;;;;;;;-144.48;100.00;62369.91;5011165;28;20038;-67
2023/07/29 00:16:07;;;;;;;2.90;1.50;;;;;;;-144.48;100.00;62369.91;5010543;28;20033;-69
2023/07/29 00:18:33;;;;;;;1.92;1.02;;;;;;;-144.48;100.00;62369.91;4984271;28;20073;-67
2023/07/29 00:20:59;;;;;;;3.38;1.30;;;;;;;-144.48;100.00;62369.91;5007045;28;20107;-66
2023/07/29 00:23:24;;;;;;;6.47;1.45;;;;;;;-144.48;100.00;62369.91;4992708;28;20095;-68
2023/07/29 00:25:49;;;;;;;2.90;1.20;;;;;;;-144.48;100.00;62369.91;5009852;28;20057;-65
2023/07/29 00:28:15;;;;;;;2.30;1.30;;;;;;;-144.48;100.00;62369.91;5010554;28;20468;-67
2023/07/29 00:30:41;;;;;;;2.90;1.30;;;;;;;-144.48;100.00;62369.91;5010475;28;20365;-68
2023/07/29 00:33:06;;;;;;;3.33;1.27;;;;;;;-144.48;100.00;62369.91;5010301;28;20040;-67
2023/07/29 00:35:31;;;;;;;3.83;1.40;;;;;;;-144.48;100.00;62369.91;5010055;28;20029;-67
2023/07/29 00:37:57;;;;;;;3.20;1.40;;;;;;;-144.48;100.00;62369.91;5010413;28;20341;-67
2023/07/29 00:40:23;;;;;;;7.30;1.40;;;;;;;-144.48;100.00;62369.91;5010443;28;20026;-65
2023/07/29 00:42:50;;;;;;;2.97;1.27;;;;;;;-144.48;100.00;62369.91;5010164;28;20597;-65
2023/07/29 00:45:15;;;;;;;3.30;1.23;;;;;;;-144.48;100.00;62369.91;5010315;28;20028;-67
2023/07/29 00:47:41;;;;;;;1.90;1.20;;;;;;;-144.48;100.00;62369.91;5010050;28;20479;-68
2023/07/29 00:50:08;;;;;;;3.42;1.85;;;;;;;-144.48;100.00;62369.91;5010143;28;20104;-67
2023/07/29 00:52:34;;;;;;;1.08;0.93;;;;;;;-144.48;100.00;62369.91;5018485;28;20039;-66
2023/07/29 00:54:59;;;;;;;5.72;1.17;;;;;;;-144.48;100.00;62369.91;5014091;28;20030;-66
2023/07/29 00:57:26;;;;;;;1.80;1.10;;;;;;;-144.48;100.00;62369.91;5009626;28;20510;-67
2023/07/29 00:59:52;;;;;;;1.85;1.10;;;;;;;-144.48;100.00;62369.91;5010436;28;20025;-67
2023/07/29 01:02:17;;;;;;;1.95;1.05;;;;;;;-144.48;100.00;62369.91;5009635;28;20459;-69
2023/07/29 01:04:43;;;;;;;2.00;1.10;;;;;;;-144.48;100.00;62369.91;5009635;28;20053;-63
2023/07/29 01:07:21;;;;;;;3.45;1.30;;;;;;;-144.48;100.00;62369.91;5009600;28;20058;-65
2023/07/29 01:10:05;;;;;;;3.75;1.13;;;;;;;-144.48;100.00;62369.91;4991890;28;20057;-66
2023/07/29 01:12:47;;;;;;;2.47;1.20;;;;;;;-144.48;100.00;62369.91;5009575;28;20036;-67
2023/07/29 01:15:21;;;;;;;2.30;1.23;;;;;;;-144.48;100.00;62369.91;5021794;28;20125;-67
2023/07/29 01:17:51;;;;;;;6.95;1.42;;;;;;;-144.48;100.00;62369.91;5009687;28;20033;-67
2023/07/29 01:20:20;;;;;;;3.20;1.65;;;;;;;-144.48;100.00;62369.91;5010045;28;20376;-67
2023/07/29 01:22:46;;;;;;;2.83;1.50;;;;;;;-144.48;100.00;62369.91;5009959;28;20105;-66
2023/07/29 01:25:12;;;;;;;3.20;1.48;;;;;;;-144.48;100.00;62369.91;5005728;28;20250;-67
2023/07/29 01:30:11;;;;;;;2.88;1.50;;;;;;;-144.48;100.00;62369.91;5072880;22;20465;-66
2023/07/29 01:32:42;;;;;;;2.28;1.40;;;;;;;-144.48;100.00;62369.91;5044836;28;20029;-67
2023/07/29 01:35:26;;;;;;;3.65;1.42;;;;;;;-144.48;100.00;62369.91;5048083;28;20025;-63
2023/07/29 01:37:56;;;;;;;3.60;1.35;;;;;;;-144.48;100.00;62369.91;5035913;28;20017;-67
2023/07/29 01:40:25;;;;;;;3.20;1.60;;;;;;;-144.48;100.00;62369.91;5048836;28;20020;-64
2023/07/29 01:42:51;;;;;;;3.65;1.25;;;;;;;-144.48;100.00;62369.91;5048671;28;20104;-63
2023/07/29 01:45:16;;;;;;;2.50;1.40;;;;;;;-144.48;100.00;62369.91;5048894;28;20029;-66
2023/07/29 01:47:42;;;;;;;3.78;2.42;;;;;;;-144.48;100.00;62369.91;5049150;28;20418;-64
2023/07/29 01:50:08;;;;;;;2.25;1.27;;;;;;;-144.48;100.00;62369.91;5048912;28;20495;-68
2023/07/29 01:52:33;;;;;;;2.47;1.40;;;;;;;-144.48;100.00;62369.91;5048241;28;20037;-64
2023/07/29 01:54:59;;;;;;;1.70;1.15;;;;;;;-144.48;100.00;62369.91;5047381;28;20059;-67
2023/07/29 01:57:24;;;;;;;5.70;1.45;;;;;;;-144.48;100.00;62369.91;5047310;28;20079;-67
2023/07/29 01:59:49;;;;;;;2.92;1.50;;;;;;;-144.48;100.00;62369.91;5047602;28;20025;-66
2023/07/29 02:02:15;;;;;;;2.63;1.38;;;;;;;-144.48;100.00;62369.91;5047737;28;20033;-66
2023/07/29 02:04:40;;;;;;;1.80;1.30;;;;;;;-144.48;100.00;62369.91;5047536;28;20535;-65
2023/07/29 02:07:05;;;;;;;2.47;1.20;;;;;;;-144.48;100.00;62369.91;5047803;28;20071;-68
2023/07/29 02:09:31;;;;;;;1.85;1.20;;;;;;;-144.48;100.00;62369.91;5047292;28;20047;-63
2023/07/29 02:11:58;;;;;;;1.85;1.20;;;;;;;-144.48;100.00;62369.91;5047234;28;20565;-67
2023/07/29 02:14:23;;;;;;;2.00;1.23;;;;;;;-144.48;100.00;62369.91;5046940;28;20074;-65
2023/07/29 02:16:49;;;;;;;2.88;1.20;;;;;;;-144.48;100.00;62369.91;5047502;28;20025;-68
2023/07/29 02:19:14;;;;;;;2.88;1.25;;;;;;;-144.48;100.00;62369.91;5046955;28;20032;-66
2023/07/29 02:21:40;;;;;;;2.90;1.52;;;;;;;-144.48;100.00;62369.91;5047557;28;20032;-63
2023/07/29 02:24:05;;;;;;;2.90;1.20;;;;;;;-144.48;100.00;62369.91;5047173;28;20055;-67
2023/07/29 02:26:31;;;;;;;3.63;1.33;;;;;;;-144.48;100.00;62369.91;5046949;28;20017;-65
2023/07/29 02:28:56;;;;;;;3.03;1.38;;;;;;;-144.48;100.00;62369.91;5047150;28;20028;-68
2023/07/29 02:31:24;;;;;;;4.60;1.25;;;;;;;-144.48;100.00;62369.91;5047190;28;20049;-63
2023/07/29 02:33:50;;;;;;;1.65;1.08;;;;;;;-144.48;100.00;62369.91;5047361;28;20104;-64
2023/07/29 02:36:17;;;;;;;2.25;1.20;;;;;;;-144.48;100.00;62369.91;5047642;28;20247;-66
2023/07/29 02:38:42;;;;;;;2.90;1.50;;;;;;;-144.48;100.00;62369.91;5048031;28;20021;-66
2023/07/29 02:41:09;;;;;;;3.03;1.42;;;;;;;-144.48;100.00;62369.91;5050410;28;20028;-67
2023/07/29 02:43:35;;;;;;;4.45;1.23;;;;;;;-144.48;100.00;62369.91;5050787;28;20099;-66
2023/07/29 02:46:01;;;;;;;2.70;1.20;;;;;;;-144.48;100.00;62369.91;5051087;28;20033;-64
2023/07/29 02:48:28;;;;;;;1.45;1.00;;;;;;;-144.48;100.00;62369.91;5050850;28;20043;-66
2023/07/29 02:50:53;;;;;;;1.55;1.00;;;;;;;-144.48;100.00;62369.91;5051191;28;20100;-65
2023/07/29 02:53:19;;;;;;;2.35;1.40;;;;;;;-144.48;100.00;62369.91;5051006;28;20053;-67
2023/07/29 02:55:44;;;;;;;2.47;1.30;;;;;;;-144.48;100.00;62369.91;5051398;28;20070;-67
2023/07/29 02:58:09;;;;;;;2.50;1.30;;;;;;;-144.48;100.00;62369.91;5051021;28;20100;-63
2023/07/29 03:00:35;;;;;;;1.63;1.10;;;;;;;-144.48;100.00;62369.91;5051342;28;20442;-67
2023/07/29 03:03:00;;;;;;;2.38;1.27;;;;;;;-144.48;100.00;62369.91;5051607;28;20064;-64
2023/07/29 03:05:32;;;;;;;2.25;1.40;;;;;;;-144.48;100.00;62369.91;5051580;28;20025;-66
2023/07/29 03:07:58;;;;;;;3.15;1.42;;;;;;;-144.48;100.00;62369.91;5051492;28;20047;-67
2023/07/29 03:10:23;;;;;;;2.05;1.35;;;;;;;-144.48;100.00;62369.91;5051236;28;20482;-64
2023/07/29 03:12:48;;;;;;;3.03;1.40;;;;;;;-144.48;100.00;62369.91;5032592;28;20567;-67
2023/07/29 03:15:14;;;;;;;5.13;1.40;;;;;;;-144.48;100.00;62369.91;5032267;28;20021;-67
2023/07/29 03:17:39;;;;;;;3.35;1.60;;;;;;;-144.48;100.00;62369.91;5050022;28;20028;-65
2023/07/29 03:20:05;;;;;;;3.58;1.52;;;;;;;-144.48;100.00;62369.91;5050070;28;20028;-66
2023/07/29 03:22:31;;;;;;;1.75;1.10;;;;;;;-144.48;100.00;62369.91;5050036;28;20340;-64
2023/07/29 03:24:56;;;;;;;2.55;1.30;;;;;;;-144.48;100.00;62369.91;5031758;28;20083;-67
2023/07/29 03:27:21;;;;;;;5.60;1.80;;;;;;;-144.48;100.00;62369.91;5049862;28;20044;-66
2023/07/29 03:29:47;;;;;;;2.30;1.50;;;;;;;-144.48;100.00;62369.91;5050052;28;20399;-67
2023/07/29 03:32:13;;;;;;;2.50;1.40;;;;;;;-144.48;100.00;62369.91;5049723;28;20394;-63
2023/07/29 03:34:40;;;;;;;2.78;1.45;;;;;;;-144.48;100.00;62369.91;5049898;28;20435;-66
2023/07/29 03:37:05;;;;;;;2.35;1.25;;;;;;;-144.48;100.00;62369.91;5050154;28;20029;-66
2023/07/29 03:39:31;;;;;;;5.28;1.52;;;;;;;-144.48;100.00;62369.91;5049706;28;20089;-67
2023/07/29 03:41:57;;;;;;;2.15;1.30;;;;;;;-144.48;100.00;62369.91;5049688;28;20049;-67
2023/07/29 03:44:22;;;;;;;2.13;1.30;;;;;;;-144.48;100.00;62369.91;5049914;28;20077;-64
2023/07/29 03:46:48;;;;;;;2.90;1.38;;;;;;;-144.48;100.00;62369.91;5049677;28;20028;-66
2023/07/29 03:49:13;;;;;;;3.38;1.70;;;;;;;-144.48;100.00;62369.91;5049532;28;20044;-66
2023/07/29 03:51:39;;;;;;;3.67;1.92;;;;;;;-144.48;100.00;62369.91;5049754;28;20028;-64
2023/07/29 03:54:04;;;;;;;4.10;2.00;;;;;;;-144.48;100.00;62369.91;5049653;28;20017;-66
2023/07/29 03:56:29;;;;;;;4.75;2.25;;;;;;;-144.48;100.00;62369.91;5049681;28;20033;-65
2023/07/29 03:59:03;;;;;;;6.28;2.10;;;;;;;-144.48;100.00;62369.91;5050078;28;20024;-67
2023/07/29 04:01:28;;;;;;;4.90;1.80;;;;;;;-144.48;100.00;62369.91;5049207;28;20043;-66
2023/07/29 04:03:54;;;;;;;2.72;1.60;;;;;;;-144.48;100.00;62369.91;5049607;28;20025;-66
2023/07/29 04:06:20;;;;;;;3.08;1.88;;;;;;;-144.48;100.00;62369.91;5050080;28;20459;-64
2023/07/29 04:08:45;;;;;;;3.00;1.63;;;;;;;-144.48;100.00;62369.91;5049836;28;20493;-67
2023/07/29 04:11:10;;;;;;;3.92;2.13;;;;;;;-144.48;100.00;62369.91;5049620;28;20048;-64
2023/07/29 04:13:37;;;;;;;3.60;2.00;;;;;;;-144.48;100.00;62369.91;5031876;28;20032;-68
2023/07/29 04:16:03;;;;;;;3.42;1.85;;;;;;;-144.48;100.00;62369.91;5049617;28;20032;-67
2023/07/29 04:18:29;;;;;;;4.65;2.10;;;;;;;-144.48;100.00;62369.91;5050640;28;20299;-62
2023/07/29 04:20:54;;;;;;;4.85;2.17;;;;;;;-144.48;100.00;62369.91;5049975;28;20212;-67
2023/07/29 04:23:19;;;;;;;2.70;1.75;;;;;;;-144.48;100.00;62369.91;5050104;28;20598;-62
2023/07/29 04:25:45;;;;;;;3.35;1.90;;;;;;;-144.48;100.00;62369.91;5048468;28;20037;-65
2023/07/29 04:28:10;;;;;;;3.67;2.00;;;;;;;-144.48;100.00;62369.91;5048923;28;20293;-66
2023/07/29 04:30:35;;;;;;;5.05;1.83;;;;;;;-144.48;100.00;62369.91;5048765;28;20029;-66
2023/07/29 04:33:01;;;;;;;2.53;1.45;;;;;;;-144.48;100.00;62369.91;5048804;28;20040;-66
2023/07/29 04:35:26;;;;;;;3.08;1.88;;;;;;;-144.48;100.00;62369.91;5048693;28;20036;-66
2023/07/29 04:37:51;;;;;;;2.95;1.60;;;;;;;-144.48;100.00;62369.91;5048834;28;20086;-65
2023/07/29 04:40:17;;;;;;;5.57;2.00;;;;;;;-144.48;100.00;62369.91;5048815;28;20040;-66
2023/07/29 04:42:42;;;;;;;2.72;1.70;;;;;;;-144.48;100.00;62369.91;5048353;28;20017;-67
2023/07/29 04:45:08;;;;;;;2.97;1.58;;;;;;;-144.48;100.00;62369.91;5048568;28;20035;-66
2023/07/29 04:47:33;;;;;;;3.05;1.65;;;;;;;-144.48;100.00;62369.91;5049218;28;20017;-67
2023/07/29 04:49:59;;;;;;;3.25;1.80;;;;;;;-144.48;100.00;62369.91;5048689;28;20029;-62
2023/07/29 04:52:24;;;;;;;4.28;1.92;;;;;;;-144.48;100.00;62369.91;5048818;28;20029;-66
2023/07/29 04:54:49;;;;;;;9.27;2.00;;;;;;;-144.48;100.00;62369.91;5048341;28;20035;-65
2023/07/29 04:57:15;;;;;;;4.43;2.17;;;;;;;-144.48;100.00;62369.91;5048608;28;20056;-67
2023/07/29 04:59:40;;;;;;;4.88;1.95;;;;;;;-144.48;100.00;62369.91;5048641;28;20029;-62
2023/07/29 05:02:05;;;;;;;8.05;1.70;;;;;;;-144.48;100.00;62369.91;5034410;28;20506;-66
2023/07/29 05:04:31;;;;;;;2.88;1.58;;;;;;;-144.48;100.00;62369.91;5047997;28;20082;-66
2023/07/29 05:06:56;;;;;;;1.65;1.30;;;;;;;-144.48;100.00;62369.91;5048838;28;20029;-68
2023/07/29 05:09:22;;;;;;;4.32;1.70;;;;;;;-144.48;100.00;62369.91;5048508;28;20044;-67
2023/07/29 05:11:48;;;;;;;3.47;1.60;;;;;;;-144.48;100.00;62369.91;5048069;28;20028;-62
2023/07/29 05:14:15;;;;;;;2.58;1.27;;;;;;;-144.48;100.00;62369.91;5048683;28;20482;-66
2023/07/29 05:16:40;;;;;;;2.55;1.42;;;;;;;-144.48;100.00;62369.91;5048159;28;20527;-65
2023/07/29 05:19:06;;;;;;;2.75;1.60;;;;;;;-144.48;100.00;62369.91;5048433;28;20219;-68
2023/07/29 05:21:31;;;;;;;1.90;1.27;;;;;;;-144.48;100.00;62369.91;5048788;28;20021;-67
2023/07/29 05:23:57;;;;;;;2.10;1.30;;;;;;;-144.48;100.00;62369.91;5048003;28;20100;-64
2023/07/29 05:26:23;;;;;;;1.85;1.25;;;;;;;-144.48;100.00;62369.91;5047327;28;20107;-66
2023/07/29 05:28:48;;;;;;;2.47;1.30;;;;;;;-144.48;100.00;62369.91;5048046;28;20541;-66
2023/07/29 05:31:13;;;;;;;5.45;1.75;;;;;;;-144.48;100.00;62369.91;5047475;28;20036;-68
2023/07/29 05:33:39;;;;;;;2.80;1.38;;;;;;;-144.48;100.00;62369.91;5048016;28;20402;-66
2023/07/29 05:36:05;;;;;;;1.77;1.20;;;;;;;-144.48;100.00;62369.91;5048288;28;20021;-66
2023/07/29 05:38:30;;;;;;;2.60;1.40;;;;;;;-144.48;100.00;62369.91;5048231;28;20045;-66
2023/07/29 05:40:56;;;;;;;2.25;1.30;;;;;;;-144.48;100.00;62369.91;5029610;28;20095;-66
2023/07/29 05:43:21;;;;;;;4.38;1.50;;;;;;;-144.48;100.00;62369.91;5048669;28;20025;-66
2023/07/29 05:45:47;;;;;;;3.45;1.50;;;;;;;-144.48;100.00;62369.91;5048204;28;20367;-64
2023/07/29 05:48:12;;;;;;;2.65;1.73;;;;;;;-144.48;100.00;62369.91;5048460;28;20083;-67
2023/07/29 05:50:37;;;;;;;3.08;1.42;;;;;;;-144.48;100.00;62369.91;5048051;28;20104;-67
2023/07/29 05:53:03;;;;;;;2.88;1.63;;;;;;;-144.48;100.00;62369.91;5048042;28;20033;-66
2023/07/29 05:55:29;;;;;;;3.92;2.00;;;;;;;-144.48;100.00;62369.91;5048169;28;20448;-65
2023/07/29 05:57:54;;;;;;;6.18;1.75;;;;;;;-144.48;100.00;62369.91;5047754;28;20059;-67
2023/07/29 06:00:20;;;;;;;5.28;1.90;;;;;;;-144.48;100.00;62369.91;5047929;28;20021;-67
2023/07/29 06:02:45;;;;;;;3.05;1.60;;;;;;;-144.48;100.00;62369.91;5047864;28;20059;-62
2023/07/29 06:05:11;;;;;;;7.68;1.60;;;;;;;-144.48;100.00;62369.91;5047879;28;20032;-66
2023/07/29 06:07:36;;;;;;;2.67;1.60;;;;;;;-144.48;100.00;62369.91;5048112;28;20017;-63
2023/07/29 06:10:02;;;;;;;2.90;1.30;;;;;;;-144.48;100.00;62369.91;5048223;28;20119;-66
2023/07/29 06:12:27;;;;;;;6.97;1.80;;;;;;;-144.48;100.00;62369.91;5048383;28;20021;-66
2023/07/29 06:14:53;;;;;;;2.78;1.63;;;;;;;-144.48;100.00;62369.91;5051665;28;20078;-66
2023/07/29 06:17:18;;;;;;;2.13;1.40;;;;;;;-144.48;100.00;62369.91;5051923;28;20417;-67
2023/07/29 06:19:43;;;;;;;2.35;1.20;;;;;;;-144.48;100.00;62369.91;5051779;28;20059;-65
2023/07/29 06:22:10;;;;;;;1.98;1.20;;;;;;;-144.48;100.00;62369.91;5052098;28;20147;-66
2023/07/29 06:24:35;;;;;;;5.15;2.08;;;;;;;-144.48;100.00;62369.91;5051062;28;20046;-64
2023/07/29 06:27:01;;;;;;;2.17;1.42;;;;;;;-144.48;100.00;62369.91;5051424;28;20017;-65
2023/07/29 06:29:26;;;;;;;3.83;1.42;;;;;;;-144.48;100.00;62369.91;5051618;28;20348;-67
2023/07/29 06:31:51;;;;;;;2.08;1.40;;;;;;;-144.48;100.00;62369.91;5046130;28;20443;-67
2023/07/29 06:34:20;;;;;;;2.35;1.42;;;;;;;-144.48;100.00;62369.91;5051508;28;20371;-66
2023/07/29 06:36:45;;;;;;;2.67;1.65;;;;;;;-144.48;100.00;62369.91;5051784;28;20031;-66
2023/07/29 06:39:10;;;;;;;4.22;1.33;;;;;;;-144.48;100.00;62369.91;5051749;28;20033;-66
2023/07/29 06:41:36;;;;;;;1.98;1.20;;;;;;;-144.48;100.00;62369.91;5051685;28;20111;-64
2023/07/29 06:44:01;;;;;;;2.38;1.50;;;;;;;-144.48;100.00;62369.91;5051494;28;20029;-67
2023/07/29 06:46:27;;;;;;;7.03;1.65;;;;;;;-144.48;100.00;62369.91;5052161;28;20025;-66
2023/07/29 06:48:52;;;;;;;4.60;1.88;;;;;;;-144.48;100.00;62369.91;5051271;28;20048;-68
2023/07/29 06:51:17;;;;;;;4.00;1.27;;;;;;;-144.48;100.00;62369.91;5050842;28;20060;-68
2023/07/29 06:53:43;;;;;;;7.25;1.42;;;;;;;-144.48;100.00;62369.91;5032867;28;20070;-67
2023/07/29 06:56:08;;;;;;;2.20;1.50;;;;;;;-144.48;100.00;62369.91;5050768;28;20463;-67
2023/07/29 06:58:34;;;;;;;3.45;1.50;;;;;;;-144.48;100.00;62369.91;5050419;28;20514;-67
2023/07/29 07:01:00;;;;;;;2.40;1.33;;;;;;;-144.48;100.00;62369.91;5050754;28;20029;-67
2023/07/29 07:03:25;;;;;;;2.90;1.63;;;;;;;-144.48;100.00;62369.91;5050619;28;20039;-63
2023/07/29 07:05:51;;;;;;;2.90;1.63;;;;;;;-144.48;100.00;62369.91;5050713;28;20091;-66
2023/07/29 07:08:16;;;;;;;2.83;1.67;;;;;;;-144.48;100.00;62369.91;5050710;28;20024;-67
2023/07/29 07:10:42;;;;;;;5.40;1.50;;;;;;;-144.48;100.00;62369.91;5050811;28;20021;-67
2023/07/29 07:13:07;;;;;;;4.80;1.30;;;;;;;-144.48;100.00;62369.91;5032497;28;20039;-67
2023/07/29 07:15:32;;;;;;;2.13;1.35;;;;;;;-144.48;100.00;62369.91;5050676;28;20104;-67
2023/07/29 07:17:58;;;;;;;1.73;1.10;;;;;;;-144.48;100.00;62369.91;5049948;28;20036;-68
2023/07/29 07:20:23;;;;;;;3.13;1.33;;;;;;;-144.48;100.00;62369.91;5050368;28;20032;-63
2023/07/29 07:22:48;;;;;;;1.67;1.00;;;;;;;-144.48;100.00;62369.91;5050045;28;20033;-67
2023/07/29 07:25:14;;;;;;;2.55;1.25;;;;;;;-144.48;100.00;62369.91;5031096;28;20127;-65
2023/07/29 07:27:39;;;;;;;1.20;1.00;;;;;;;-144.48;100.00;62369.91;5049585;28;20104;-68
2023/07/29 07:30:05;;;;;;;3.03;1.25;;;;;;;-144.48;100.00;62369.91;5063670;22;20060;-66
2023/07/29 07:32:30;;;;;;;2.40;1.42;;;;;;;-144.48;100.00;62369.91;5049472;28;20037;-67
2023/07/29 07:34:56;;;;;;;4.05;1.05;;;;;;;-144.48;100.00;62369.91;5051146;28;20063;-67
2023/07/29 07:37:21;;;;;;;1.73;1.00;;;;;;;-144.48;100.00;62369.91;5033019;28;20075;-68
2023/07/29 07:39:47;;;;;;;2.22;1.30;;;;;;;-144.48;100.00;62369.91;5051106;28;20025;-67
2023/07/29 07:42:12;;;;;;;4.07;1.40;;;;;;;-144.48;100.00;62369.91;5050308;28;20397;-67
2023/07/29 07:44:37;;;;;;;5.07;1.30;;;;;;;-144.48;100.00;62369.91;5050764;28;20029;-67
2023/07/29 07:47:03;;;;;;;3.05;1.40;;;;;;;-144.48;100.00;62369.91;5050484;28;20032;-65
2023/07/29 07:49:28;;;;;;;3.15;1.50;;;;;;;-144.48;100.00;62369.91;5050959;28;20017;-68
2023/07/29 07:51:54;;;;;;;1.88;1.23;;;;;;;-144.48;100.00;62369.91;5051008;28;20079;-67
2023/07/29 07:54:19;;;;;;;3.67;1.48;;;;;;;-144.48;100.00;62369.91;5050889;28;20405;-68
2023/07/29 07:56:45;;;;;;;1.98;1.25;;;;;;;-144.48;100.00;62369.91;5050745;28;20025;-68
2023/07/29 07:59:10;;;;;;;5.90;1.15;;;;;;;-144.48;100.00;62369.91;5050417;28;20029;-67
2023/07/29 08:01:37;;;;;;;8.23;1.40;;;;;;;-144.48;100.00;62369.91;5049710;28;20058;-66
2023/07/29 08:04:03;;;;;;;2.42;1.42;;;;;;;-144.48;100.00;62369.91;5050118;28;20047;-71
2023/07/29 08:06:29;;;;;;;1.52;1.00;;;;;;;-144.48;100.00;62369.91;5051092;28;20463;-68
2023/07/29 08:08:54;;;;;;;3.72;1.42;;;;;;;-144.48;100.00;62369.91;5050126;28;20368;-66
2023/07/29 08:11:20;;;;;;;1.77;1.10;;;;;;;-144.48;100.00;62369.91;5050459;28;20020;-67
2023/07/29 08:13:45;;;;;;;4.28;1.50;;;;;;;-144.48;100.00;62369.91;5050545;28;20029;-67
2023/07/29 08:16:12;;;;;;;1.85;1.10;;;;;;;-144.48;100.00;62369.91;5050306;28;20120;-67
2023/07/29 08:18:38;;;;;;;2.55;1.10;;;;;;;-144.48;100.00;62369.91;5050621;28;20479;-67
2023/07/29 08:21:03;;;;;;;1.73;1.00;;;;;;;-144.48;100.00;62369.91;5050458;28;20024;-66
2023/07/29 08:23:34;;;;;;;5.57;1.10;;;;;;;-144.48;100.00;62369.91;5050268;28;20498;-67
2023/07/29 08:26:01;;;;;;;2.05;1.10;;;;;;;-144.48;100.00;62369.91;5029673;28;20068;-66
2023/07/29 08:28:38;;;;;;;3.30;1.30;;;;;;;-144.48;100.00;62369.91;5030188;28;20068;-64
2023/07/29 08:31:07;;;;;;;1.85;1.02;;;;;;;-144.48;100.00;62369.91;5010196;28;20033;-68
2023/07/29 08:33:34;;;;;;;3.10;1.20;;;;;;;-144.48;100.00;62369.91;5027457;28;20055;-66
2023/07/29 08:35:59;;;;;;;2.03;1.10;;;;;;;-144.48;100.00;62369.91;5043697;28;20028;-64
2023/07/29 08:38:25;;;;;;;1.90;1.20;;;;;;;-144.48;100.00;62369.91;5039441;28;20112;-64
2023/07/29 08:40:56;;;;;;;2.00;1.23;;;;;;;-144.48;100.00;62369.91;5035858;28;20037;-68
2023/07/29 08:43:28;;;;;;;2.20;1.00;;;;;;;-144.48;100.00;62369.91;5049925;28;20051;-67
2023/07/29 08:45:54;;;;;;;2.45;1.13;;;;;;;-144.48;100.00;62369.91;5049747;28;20025;-68
2023/07/29 08:48:29;;;;;;;3.15;0.98;;;;;;;-144.48;100.00;62369.91;5049944;28;20102;-64
2023/07/29 08:50:55;;;;;;;3.67;1.13;;;;;;;-144.48;100.00;62369.91;5049489;28;20501;-68
2023/07/29 08:53:21;;;;;;;2.15;1.10;;;;;;;-144.48;100.00;62369.91;5049361;28;20420;-66
2023/07/29 08:55:47;;;;;;;2.20;1.08;;;;;;;-144.48;100.00;62369.91;5049455;28;20044;-68
2023/07/29 08:58:12;;;;;;;2.10;1.20;;;;;;;-144.48;100.00;62369.91;5049781;28;20120;-65
2023/07/29 09:00:39;;;;;;;1.50;0.90;;;;;;;-144.48;100.00;62369.91;5049946;28;20083;-65
2023/07/29 09:03:06;;;;;;;1.63;1.13;;;;;;;-144.48;100.00;62369.91;5049562;28;20142;-66
2023/07/29 09:05:34;;;;;;;1.35;0.98;;;;;;;-144.48;100.00;62369.91;5047687;28;20029;-64
2023/07/29 09:08:02;;;;;;;2.88;0.90;;;;;;;-144.48;100.00;62369.91;5049594;28;20108;-66
2023/07/29 09:10:28;;;;;;;1.33;0.95;;;;;;;-144.48;100.00;62369.91;5032072;28;20068;-64
2023/07/29 09:12:53;;;;;;;2.42;1.00;;;;;;;-144.48;100.00;62369.91;5029738;28;20494;-68
2023/07/29 09:15:29;;;;;;;1.35;0.75;;;;;;;-144.48;100.00;62369.91;5029423;28;20038;-65
2023/07/29 09:17:57;;;;;;;1.48;0.80;;;;;;;-144.48;100.00;62369.91;5029314;28;20029;-66
2023/07/29 09:20:26;;;;;;;0.90;0.60;;;;;;;-144.48;100.00;62369.91;5029376;28;20052;-66
2023/07/29 09:22:54;;;;;;;1.17;0.80;;;;;;;-144.48;100.00;62369.91;5030010;28;20126;-67
2023/07/29 09:25:24;;;;;;;1.40;0.75;;;;;;;-144.48;100.00;62369.91;5014773;28;20376;-66
2023/07/29 09:27:50;;;;;;;1.95;0.82;;;;;;;-144.48;100.00;62369.91;5028840;28;20014;-66
2023/07/29 09:30:16;;;;;;;1.08;0.80;;;;;;;-144.48;100.00;62369.91;5029354;28;20026;-65
2023/07/29 09:32:42;;;;;;;1.73;0.73;;;;;;;-144.48;100.00;62369.91;5023793;28;20056;-67
2023/07/29 09:35:11;;;;;;;1.73;1.00;;;;;;;-144.48;100.00;62369.91;5038496;28;20124;-68
2023/07/29 09:37:38;;;;;;;1.95;0.90;;;;;;;-144.48;100.00;62369.91;5036007;28;20018;-66
2023/07/29 09:40:05;;;;;;;1.25;0.93;;;;;;;-144.48;100.00;62369.91;5040013;28;20037;-68
2023/07/29 09:42:32;;;;;;;1.63;0.75;;;;;;;-144.48;100.00;62369.91;5042175;28;20162;-67
2023/07/29 09:44:57;;;;;;;1.58;0.70;;;;;;;-144.48;100.00;62369.91;5038722;28;20029;-64
2023/07/29 09:47:24;;;;;;;1.10;0.75;;;;;;;-144.48;100.00;62369.91;5036025;28;20515;-67
2023/07/29 09:49:51;;;;;;;1.05;0.73;;;;;;;-144.48;100.00;62369.91;5043127;28;20356;-66
2023/07/29 09:52:18;;;;;;;1.83;0.90;;;;;;;-144.48;100.00;62369.91;5046570;28;20097;-65
2023/07/29 09:54:44;;;;;;;2.33;1.02;;;;;;;-144.48;100.00;62369.91;5043218;28;20126;-67
2023/07/29 09:57:11;;;;;;;2.15;0.70;;;;;;;-144.48;100.00;62369.91;5021837;28;20032;-68
2023/07/29 09:59:36;;;;;;;1.45;0.80;;;;;;;-144.48;100.00;62369.91;5041816;28;20025;-65
2023/07/29 10:02:02;;;;;;;1.00;0.70;;;;;;;-144.48;100.00;62369.91;5045878;28;20406;-66
2023/07/29 10:04:29;;;;;;;1.00;0.70;;;;;;;-144.48;100.00;62369.91;5042197;28;20143;-67
2023/07/29 10:06:57;;;;;;;1.48;0.90;;;;;;;-144.48;100.00;62369.91;5040067;28;20032;-67
2023/07/29 10:09:23;;;;;;;0.82;0.70;;;;;;;-144.48;100.00;62369.91;5042605;28;20096;-66
2023/07/29 10:11:50;;;;;;;1.90;1.00;;;;;;;-144.48;100.00;62369.91;5046392;28;20167;-66
2023/07/29 10:14:17;;;;;;;1.33;0.80;;;;;;;-144.48;100.00;62369.91;5044267;28;20131;-64
2023/07/29 10:16:45;;;;;;;1.20;0.88;;;;;;;-144.48;100.00;62369.91;5039180;28;20917;-66
2023/07/29 10:19:12;;;;;;;1.38;0.80;;;;;;;-144.48;100.00;62369.91;5053377;28;20031;-65
2023/07/29 10:21:39;;;;;;;0.87;0.60;;;;;;;-144.48;100.00;62369.91;5034947;28;20504;-68
2023/07/29 10:24:08;;;;;;;3.72;1.15;;;;;;;-144.48;100.00;62369.91;5049802;28;20434;-67
2023/07/29 10:26:36;;;;;;;2.08;1.00;;;;;;;-144.48;100.00;62369.91;5012825;28;20048;-64
2023/07/29 10:29:08;;;;;;;1.70;1.00;;;;;;;-144.48;100.00;62369.91;5032728;28;20328;-67
2023/07/29 10:31:35;;;;;;;1.17;0.77;;;;;;;-144.48;100.00;62369.91;5026880;28;20030;-68
2023/07/29 10:34:01;;;;;;;1.77;0.80;;;;;;;-144.48;100.00;62369.91;5032481;28;20017;-68
2023/07/29 10:36:28;;;;;;;1.40;0.80;;;;;;;-144.48;100.00;62369.91;5032501;28;20124;-67
2023/07/29 10:38:54;;;;;;;1.00;0.80;;;;;;;-144.48;100.00;62369.91;5032023;28;20104;-68
2023/07/29 10:41:19;;;;;;;5.38;0.80;;;;;;;-144.48;100.00;62369.91;5013603;28;20116;-67
2023/07/29 10:43:45;;;;;;;1.58;0.80;;;;;;;-144.48;100.00;62369.91;5031970;28;20056;-66
2023/07/29 10:46:21;;;;;;;2.47;0.82;;;;;;;-144.48;100.00;62369.91;5031282;28;20128;-67
2023/07/29 10:48:49;;;;;;;1.00;0.80;;;;;;;-144.48;100.00;62369.91;5031588;28;20026;-65
2023/07/29 10:51:25;;;;;;;1.00;0.80;;;;;;;-144.48;100.00;62369.91;5032034;28;20546;-67
2023/07/29 10:54:02;;;;;;;1.75;0.80;;;;;;;-144.48;100.00;62369.91;5031668;28;20025;-67
2023/07/29 10:56:35;;;;;;;2.65;0.80;;;;;;;-144.48;100.00;62369.91;5032406;28;20025;-67
2023/07/29 10:59:12;;;;;;;2.22;0.90;;;;;;;-144.48;100.00;62369.91;5030443;28;20171;-67
2023/07/29 11:01:39;;;;;;;10.70;1.50;;;;;;;-144.48;100.00;62369.91;5031636;28;20395;-68
2023/07/29 11:04:20;;;;;;;1.63;1.00;;;;;;;-144.48;100.00;62369.91;5031005;28;20021;-64
2023/07/29 11:07:07;;;;;;;1.77;1.02;;;;;;;-144.48;100.00;62369.91;5031633;28;20025;-66
2023/07/29 11:09:50;;;;;;;1.65;1.08;;;;;;;-144.48;100.00;62369.91;5031822;28;20057;-67